DAL1196 KDAY-KRDU
Flight info
| Callsign | DAL1196 |
|---|---|
| Flight time | 0h 55m |
| Altitude | 37000 |
| Route | WIPOT FLYIR HVQ FRIKY ALDAN4 |
| Aircraft | B738/M-SDE2E3FGHIRWXY/LB1 |
Departure
| Time | 2026-05-06 20:48 |
|---|---|
| Airport | James M. Cox Dayton International Airport (KDAY) |
Arrival
| Time | 2026-05-06 21:44 |
|---|---|
| Airport | Raleigh-Durham International Airport (KRDU) |
| Time | Latitude | Longitude | Altitude | Speed | Heading |
|---|---|---|---|---|---|
| 2026-05-06 20:31 | 39.89828 | -84.21867 | 1004 ft | 0 kts | 358° |
| 2026-05-06 20:41 | 39.89823 | -84.21867 | 1004 ft | 2 kts | 358° |
| 2026-05-06 20:41 | 39.89807 | -84.21866 | 1004 ft | 2 kts | 358° |
| 2026-05-06 20:42 | 39.89791 | -84.21866 | 1004 ft | 2 kts | 6° |
| 2026-05-06 20:42 | 39.89775 | -84.21870 | 1004 ft | 1 kts | 12° |
| 2026-05-06 20:44 | 39.89791 | -84.21845 | 1004 ft | 6 kts | 54° |
| 2026-05-06 20:45 | 39.89817 | -84.21790 | 1004 ft | 8 kts | 56° |
| 2026-05-06 20:45 | 39.89853 | -84.21721 | 1004 ft | 10 kts | 60° |
| 2026-05-06 20:45 | 39.89823 | -84.21647 | 1004 ft | 10 kts | 143° |
| 2026-05-06 20:45 | 39.89763 | -84.21593 | 1004 ft | 12 kts | 146° |
| 2026-05-06 20:46 | 39.89680 | -84.21517 | 1004 ft | 17 kts | 146° |
| 2026-05-06 20:46 | 39.89584 | -84.21432 | 1004 ft | 16 kts | 146° |
| 2026-05-06 20:46 | 39.89492 | -84.21349 | 1004 ft | 15 kts | 146° |
| 2026-05-06 20:46 | 39.89441 | -84.21303 | 1004 ft | 8 kts | 139° |
| 2026-05-06 20:47 | 39.89413 | -84.21241 | 1004 ft | 8 kts | 104° |
| 2026-05-06 20:47 | 39.89411 | -84.21169 | 1004 ft | 8 kts | 91° |
| 2026-05-06 20:47 | 39.89449 | -84.21130 | 1004 ft | 12 kts | 5° |
| 2026-05-06 20:47 | 39.89731 | -84.21139 | 1005 ft | 81 kts | 358° |
| 2026-05-06 20:48 | 39.90567 | -84.21164 | 1011 ft | 156 kts | 356° |
| 2026-05-06 20:48 | 39.91791 | -84.21196 | 1482 ft | 191 kts | 358° |
| 2026-05-06 20:48 | 39.93138 | -84.21211 | 2512 ft | 194 kts | 357° |
| 2026-05-06 20:48 | 39.94527 | -84.21200 | 3209 ft | 205 kts | 358° |
| 2026-05-06 20:49 | 39.95972 | -84.21123 | 3851 ft | 212 kts | 8° |
| 2026-05-06 20:49 | 39.97323 | -84.20250 | 4340 ft | 231 kts | 40° |
| 2026-05-06 20:49 | 39.98182 | -84.18408 | 4852 ft | 249 kts | 72° |
| 2026-05-06 20:49 | 39.98461 | -84.16087 | 5284 ft | 267 kts | 82° |
| 2026-05-06 20:50 | 39.98432 | -84.13611 | 5999 ft | 278 kts | 97° |
| 2026-05-06 20:50 | 39.98071 | -84.11101 | 6822 ft | 286 kts | 102° |
| 2026-05-06 20:50 | 39.97634 | -84.08535 | 7564 ft | 295 kts | 104° |
| 2026-05-06 20:50 | 39.97182 | -84.05881 | 8283 ft | 305 kts | 104° |
| 2026-05-06 20:51 | 39.96731 | -84.03144 | 9006 ft | 314 kts | 105° |
| 2026-05-06 20:51 | 39.96283 | -84.00319 | 9761 ft | 322 kts | 106° |
| 2026-05-06 20:51 | 39.95837 | -83.97426 | 10471 ft | 329 kts | 106° |
| 2026-05-06 20:51 | 39.95392 | -83.94476 | 11179 ft | 335 kts | 106° |
| 2026-05-06 20:52 | 39.94932 | -83.91404 | 11519 ft | 358 kts | 106° |
| 2026-05-06 20:52 | 39.94438 | -83.88103 | 11698 ft | 383 kts | 106° |
| 2026-05-06 20:52 | 39.93919 | -83.84599 | 12008 ft | 402 kts | 105° |
| 2026-05-06 20:52 | 39.93388 | -83.80970 | 12597 ft | 412 kts | 105° |
| 2026-05-06 20:53 | 39.92850 | -83.77280 | 13280 ft | 418 kts | 105° |
| 2026-05-06 20:53 | 39.92303 | -83.73530 | 13938 ft | 424 kts | 105° |
| 2026-05-06 20:53 | 39.91746 | -83.69733 | 14573 ft | 429 kts | 105° |
| 2026-05-06 20:53 | 39.91179 | -83.65889 | 15203 ft | 435 kts | 105° |
| 2026-05-06 20:54 | 39.90611 | -83.62051 | 15827 ft | 440 kts | 105° |
| 2026-05-06 20:54 | 39.90026 | -83.58114 | 16440 ft | 446 kts | 105° |
| 2026-05-06 20:54 | 39.89431 | -83.54124 | 17051 ft | 451 kts | 105° |
| 2026-05-06 20:54 | 39.88830 | -83.50089 | 17648 ft | 456 kts | 104° |
| 2026-05-06 20:55 | 39.88212 | -83.45960 | 18288 ft | 461 kts | 104° |
| 2026-05-06 20:55 | 39.87595 | -83.41901 | 18778 ft | 465 kts | 107° |
| 2026-05-06 20:55 | 39.86555 | -83.37870 | 19226 ft | 462 kts | 123° |
| 2026-05-06 20:55 | 39.84909 | -83.34403 | 19722 ft | 453 kts | 137° |
| 2026-05-06 20:56 | 39.82787 | -83.31463 | 20247 ft | 439 kts | 151° |
| 2026-05-06 20:56 | 39.80430 | -83.28956 | 20816 ft | 438 kts | 153° |
| 2026-05-06 20:56 | 39.78047 | -83.26464 | 21368 ft | 441 kts | 154° |
| 2026-05-06 20:56 | 39.75614 | -83.23920 | 21902 ft | 445 kts | 154° |
| 2026-05-06 20:57 | 39.73198 | -83.21379 | 22432 ft | 448 kts | 155° |
| 2026-05-06 20:57 | 39.70773 | -83.18811 | 22940 ft | 452 kts | 155° |
| 2026-05-06 20:57 | 39.68367 | -83.16251 | 23440 ft | 455 kts | 155° |
| 2026-05-06 20:57 | 39.65882 | -83.13599 | 23836 ft | 458 kts | 155° |
| 2026-05-06 20:58 | 39.63442 | -83.10993 | 24216 ft | 462 kts | 155° |
| 2026-05-06 20:58 | 39.60917 | -83.08295 | 24611 ft | 466 kts | 155° |
| 2026-05-06 20:58 | 39.58444 | -83.05653 | 24962 ft | 468 kts | 154° |
| 2026-05-06 20:58 | 39.55930 | -83.02968 | 25420 ft | 469 kts | 154° |
| 2026-05-06 20:59 | 39.53404 | -83.00274 | 25787 ft | 472 kts | 154° |
| 2026-05-06 20:59 | 39.50853 | -82.97561 | 26117 ft | 477 kts | 154° |
| 2026-05-06 20:59 | 39.48279 | -82.94827 | 26463 ft | 480 kts | 154° |
| 2026-05-06 20:59 | 39.45689 | -82.92078 | 26824 ft | 483 kts | 154° |
| 2026-05-06 21:00 | 39.43080 | -82.89311 | 27175 ft | 487 kts | 154° |
| 2026-05-06 21:00 | 39.40454 | -82.86529 | 27524 ft | 490 kts | 154° |
| 2026-05-06 21:00 | 39.37808 | -82.83727 | 27867 ft | 493 kts | 154° |
| 2026-05-06 21:00 | 39.35146 | -82.80912 | 28123 ft | 496 kts | 154° |
| 2026-05-06 21:01 | 39.32467 | -82.78081 | 28443 ft | 499 kts | 154° |
| 2026-05-06 21:01 | 39.29768 | -82.75234 | 28707 ft | 503 kts | 154° |
| 2026-05-06 21:01 | 39.27042 | -82.72362 | 28968 ft | 507 kts | 154° |
| 2026-05-06 21:01 | 39.24301 | -82.69475 | 29258 ft | 511 kts | 154° |
| 2026-05-06 21:02 | 39.21542 | -82.66571 | 29562 ft | 513 kts | 154° |
| 2026-05-06 21:02 | 39.18777 | -82.63660 | 29960 ft | 513 kts | 154° |
| 2026-05-06 21:02 | 39.16016 | -82.60753 | 30375 ft | 512 kts | 154° |
| 2026-05-06 21:02 | 39.13263 | -82.57858 | 30768 ft | 510 kts | 155° |
| 2026-05-06 21:03 | 39.10510 | -82.54969 | 31046 ft | 510 kts | 155° |
| 2026-05-06 21:03 | 39.07769 | -82.52096 | 31491 ft | 506 kts | 155° |
| 2026-05-06 21:03 | 39.05049 | -82.49246 | 31952 ft | 503 kts | 155° |
| 2026-05-06 21:03 | 39.02336 | -82.46411 | 32300 ft | 502 kts | 156° |
| 2026-05-06 21:04 | 38.99618 | -82.43581 | 32586 ft | 503 kts | 156° |
| 2026-05-06 21:04 | 38.96898 | -82.40752 | 32897 ft | 503 kts | 156° |
| 2026-05-06 21:04 | 38.94178 | -82.37923 | 33247 ft | 502 kts | 156° |
| 2026-05-06 21:04 | 38.91468 | -82.35103 | 33604 ft | 501 kts | 156° |
| 2026-05-06 21:05 | 38.88761 | -82.32289 | 33928 ft | 500 kts | 156° |
| 2026-05-06 21:05 | 38.86055 | -82.29480 | 34128 ft | 501 kts | 155° |
| 2026-05-06 21:05 | 38.83343 | -82.26670 | 34387 ft | 501 kts | 155° |
| 2026-05-06 21:05 | 38.80630 | -82.23862 | 34592 ft | 502 kts | 155° |
| 2026-05-06 21:06 | 38.77945 | -82.21086 | 34806 ft | 503 kts | 155° |
| 2026-05-06 21:06 | 38.75221 | -82.18269 | 35048 ft | 503 kts | 155° |
| 2026-05-06 21:06 | 38.72494 | -82.15453 | 35282 ft | 504 kts | 155° |
| 2026-05-06 21:06 | 38.69764 | -82.12636 | 35488 ft | 505 kts | 155° |
| 2026-05-06 21:07 | 38.67023 | -82.09810 | 35692 ft | 506 kts | 155° |
| 2026-05-06 21:07 | 38.64283 | -82.06988 | 35917 ft | 506 kts | 155° |
| 2026-05-06 21:07 | 38.61535 | -82.04162 | 36069 ft | 507 kts | 155° |
| 2026-05-06 21:07 | 38.58784 | -82.01335 | 36221 ft | 509 kts | 155° |
| 2026-05-06 21:08 | 38.56017 | -81.98496 | 36406 ft | 510 kts | 155° |
| 2026-05-06 21:08 | 38.53250 | -81.95656 | 36647 ft | 510 kts | 155° |
| 2026-05-06 21:08 | 38.50489 | -81.92823 | 36884 ft | 509 kts | 155° |
| 2026-05-06 21:09 | 38.44923 | -81.87134 | 36963 ft | 517 kts | 155° |
| 2026-05-06 21:09 | 38.39267 | -81.81358 | 36976 ft | 524 kts | 155° |
| 2026-05-06 21:10 | 38.33751 | -81.75088 | 36939 ft | 547 kts | 142° |
| 2026-05-06 21:10 | 38.29092 | -81.67227 | 36970 ft | 560 kts | 136° |
| 2026-05-06 21:11 | 38.24580 | -81.59180 | 36961 ft | 556 kts | 136° |
| 2026-05-06 21:11 | 38.20089 | -81.51298 | 36945 ft | 547 kts | 137° |
| 2026-05-06 21:12 | 38.15563 | -81.43532 | 36944 ft | 546 kts | 137° |
| 2026-05-06 21:12 | 38.11010 | -81.35787 | 36952 ft | 548 kts | 137° |
| 2026-05-06 21:13 | 38.06437 | -81.28009 | 36924 ft | 550 kts | 137° |
| 2026-05-06 21:13 | 38.01888 | -81.20270 | 36932 ft | 552 kts | 137° |
| 2026-05-06 21:14 | 37.97292 | -81.12465 | 36922 ft | 553 kts | 137° |
| 2026-05-06 21:14 | 37.92683 | -81.04657 | 36950 ft | 553 kts | 137° |
| 2026-05-06 21:15 | 37.88067 | -80.96856 | 36947 ft | 554 kts | 137° |
| 2026-05-06 21:15 | 37.83452 | -80.89076 | 36903 ft | 552 kts | 137° |
| 2026-05-06 21:16 | 37.78850 | -80.81336 | 36927 ft | 550 kts | 137° |
| 2026-05-06 21:16 | 37.74235 | -80.73602 | 36620 ft | 554 kts | 137° |
| 2026-05-06 21:16 | 37.71916 | -80.69721 | 36359 ft | 552 kts | 137° |
| 2026-05-06 21:17 | 37.69608 | -80.65858 | 36107 ft | 550 kts | 137° |
| 2026-05-06 21:17 | 37.67306 | -80.62006 | 34129 ft | 549 kts | 137° |
| 2026-05-06 21:17 | 37.65005 | -80.58165 | 33889 ft | 548 kts | 137° |
| 2026-05-06 21:17 | 37.62709 | -80.54337 | 33658 ft | 546 kts | 137° |
| 2026-05-06 21:18 | 37.60417 | -80.50522 | 33380 ft | 545 kts | 137° |
| 2026-05-06 21:18 | 37.58129 | -80.46718 | 33145 ft | 544 kts | 137° |
| 2026-05-06 21:18 | 37.55842 | -80.42920 | 32868 ft | 543 kts | 137° |
| 2026-05-06 21:18 | 37.53557 | -80.39129 | 33227 ft | 543 kts | 137° |
| 2026-05-06 21:19 | 37.51274 | -80.35348 | 33773 ft | 542 kts | 137° |
| 2026-05-06 21:19 | 37.48992 | -80.31570 | 33920 ft | 542 kts | 136° |
| 2026-05-06 21:19 | 37.46712 | -80.27800 | 33357 ft | 541 kts | 136° |
| 2026-05-06 21:19 | 37.44432 | -80.24035 | 32693 ft | 540 kts | 136° |
| 2026-05-06 21:20 | 37.42154 | -80.20278 | 31987 ft | 540 kts | 136° |
| 2026-05-06 21:20 | 37.40643 | -80.17788 | 31507 ft | 541 kts | 136° |
| 2026-05-06 21:20 | 37.37589 | -80.12762 | 30532 ft | 540 kts | 136° |
| 2026-05-06 21:20 | 37.35317 | -80.09022 | 29998 ft | 536 kts | 136° |
| 2026-05-06 21:21 | 37.33067 | -80.05319 | 29404 ft | 530 kts | 136° |
| 2026-05-06 21:21 | 37.30866 | -80.01705 | 28797 ft | 526 kts | 136° |
| 2026-05-06 21:21 | 37.28658 | -79.98087 | 28237 ft | 519 kts | 135° |
| 2026-05-06 21:21 | 37.26447 | -79.94468 | 27701 ft | 512 kts | 134° |
| 2026-05-06 21:22 | 37.24321 | -79.90991 | 27198 ft | 506 kts | 134° |
| 2026-05-06 21:22 | 37.22188 | -79.87534 | 26878 ft | 496 kts | 135° |
| 2026-05-06 21:22 | 37.20088 | -79.84171 | 26623 ft | 485 kts | 135° |
| 2026-05-06 21:22 | 37.18008 | -79.80866 | 26146 ft | 481 kts | 135° |
| 2026-05-06 21:23 | 37.15938 | -79.77592 | 25640 ft | 478 kts | 135° |
| 2026-05-06 21:23 | 37.13889 | -79.74354 | 25140 ft | 475 kts | 135° |
| 2026-05-06 21:23 | 37.11839 | -79.71112 | 24594 ft | 474 kts | 134° |
| 2026-05-06 21:23 | 37.09798 | -79.67882 | 24058 ft | 472 kts | 134° |
| 2026-05-06 21:24 | 37.07762 | -79.64659 | 23519 ft | 471 kts | 134° |
| 2026-05-06 21:24 | 37.05729 | -79.61441 | 22889 ft | 470 kts | 134° |
| 2026-05-06 21:24 | 37.03708 | -79.58243 | 22335 ft | 467 kts | 134° |
| 2026-05-06 21:24 | 37.01699 | -79.55066 | 21795 ft | 464 kts | 134° |
| 2026-05-06 21:25 | 36.99703 | -79.51912 | 21242 ft | 461 kts | 133° |
| 2026-05-06 21:25 | 36.97720 | -79.48783 | 20724 ft | 457 kts | 133° |
| 2026-05-06 21:25 | 36.96415 | -79.46725 | 20379 ft | 455 kts | 133° |
| 2026-05-06 21:25 | 36.94450 | -79.43631 | 19834 ft | 454 kts | 133° |
| 2026-05-06 21:26 | 36.92492 | -79.40551 | 19294 ft | 452 kts | 133° |
| 2026-05-06 21:26 | 36.90542 | -79.37486 | 18765 ft | 450 kts | 133° |
| 2026-05-06 21:26 | 36.87940 | -79.33400 | 18032 ft | 448 kts | 133° |
| 2026-05-06 21:26 | 36.86659 | -79.31391 | 17644 ft | 446 kts | 133° |
| 2026-05-06 21:27 | 36.84732 | -79.28369 | 17116 ft | 443 kts | 133° |
| 2026-05-06 21:27 | 36.82822 | -79.25375 | 16596 ft | 439 kts | 133° |
| 2026-05-06 21:27 | 36.80926 | -79.22407 | 16078 ft | 435 kts | 133° |
| 2026-05-06 21:27 | 36.79046 | -79.19466 | 15567 ft | 431 kts | 133° |
| 2026-05-06 21:28 | 36.77182 | -79.16554 | 15062 ft | 428 kts | 133° |
| 2026-05-06 21:28 | 36.75336 | -79.13670 | 14561 ft | 424 kts | 133° |
| 2026-05-06 21:28 | 36.73502 | -79.10810 | 14067 ft | 420 kts | 133° |
| 2026-05-06 21:28 | 36.71702 | -79.08002 | 13535 ft | 409 kts | 133° |
| 2026-05-06 21:29 | 36.69948 | -79.05269 | 13016 ft | 398 kts | 133° |
| 2026-05-06 21:29 | 36.68029 | -79.02873 | 12522 ft | 386 kts | 148° |
| 2026-05-06 21:29 | 36.65771 | -79.01181 | 12117 ft | 373 kts | 160° |
| 2026-05-06 21:29 | 36.63365 | -79.00152 | 11806 ft | 358 kts | 173° |
| 2026-05-06 21:30 | 36.60982 | -78.99491 | 11679 ft | 345 kts | 173° |
| 2026-05-06 21:30 | 36.58672 | -78.98845 | 11527 ft | 335 kts | 173° |
| 2026-05-06 21:30 | 36.56432 | -78.98210 | 11397 ft | 325 kts | 173° |
| 2026-05-06 21:30 | 36.54261 | -78.97589 | 11283 ft | 316 kts | 173° |
| 2026-05-06 21:31 | 36.52151 | -78.96982 | 11144 ft | 307 kts | 173° |
| 2026-05-06 21:31 | 36.50101 | -78.96390 | 11029 ft | 298 kts | 173° |
| 2026-05-06 21:31 | 36.48095 | -78.95811 | 10778 ft | 296 kts | 173° |
| 2026-05-06 21:31 | 36.46096 | -78.95235 | 10476 ft | 294 kts | 173° |
| 2026-05-06 21:32 | 36.44106 | -78.94660 | 10211 ft | 293 kts | 172° |
| 2026-05-06 21:32 | 36.40174 | -78.93421 | 9604 ft | 295 kts | 160° |
| 2026-05-06 21:32 | 36.38509 | -78.91888 | 9317 ft | 301 kts | 139° |
| 2026-05-06 21:33 | 36.37059 | -78.90019 | 9021 ft | 300 kts | 138° |
| 2026-05-06 21:33 | 36.35627 | -78.88147 | 8721 ft | 299 kts | 138° |
| 2026-05-06 21:33 | 36.34204 | -78.86304 | 8555 ft | 292 kts | 139° |
| 2026-05-06 21:33 | 36.32810 | -78.84514 | 8419 ft | 285 kts | 139° |
| 2026-05-06 21:34 | 36.31445 | -78.82773 | 8289 ft | 278 kts | 139° |
| 2026-05-06 21:34 | 36.30113 | -78.81080 | 8165 ft | 270 kts | 140° |
| 2026-05-06 21:34 | 36.28812 | -78.79444 | 8052 ft | 262 kts | 140° |
| 2026-05-06 21:34 | 36.27542 | -78.77853 | 7858 ft | 259 kts | 140° |
| 2026-05-06 21:35 | 36.26282 | -78.76261 | 7600 ft | 258 kts | 140° |
| 2026-05-06 21:35 | 36.25029 | -78.74671 | 7325 ft | 257 kts | 140° |
| 2026-05-06 21:35 | 36.23781 | -78.73088 | 7067 ft | 257 kts | 140° |
| 2026-05-06 21:35 | 36.22534 | -78.71506 | 6799 ft | 257 kts | 140° |
| 2026-05-06 21:36 | 36.21285 | -78.69925 | 6532 ft | 257 kts | 141° |
| 2026-05-06 21:36 | 36.20036 | -78.68343 | 6245 ft | 257 kts | 142° |
| 2026-05-06 21:36 | 36.18774 | -78.66771 | 5931 ft | 257 kts | 145° |
| 2026-05-06 21:36 | 36.17418 | -78.65368 | 5587 ft | 252 kts | 149° |
| 2026-05-06 21:37 | 36.16067 | -78.64047 | 5290 ft | 243 kts | 150° |
| 2026-05-06 21:37 | 36.14761 | -78.62762 | 4976 ft | 237 kts | 150° |
| 2026-05-06 21:37 | 36.13479 | -78.61496 | 4650 ft | 235 kts | 149° |
| 2026-05-06 21:37 | 36.12208 | -78.60237 | 4319 ft | 232 kts | 148° |
| 2026-05-06 21:38 | 36.10865 | -78.59294 | 4055 ft | 213 kts | 176° |
| 2026-05-06 21:38 | 36.09429 | -78.59288 | 4023 ft | 208 kts | 195° |
| 2026-05-06 21:38 | 36.08031 | -78.59738 | 4018 ft | 204 kts | 201° |
| 2026-05-06 21:38 | 36.06679 | -78.60203 | 4021 ft | 205 kts | 200° |
| 2026-05-06 21:39 | 36.05312 | -78.60664 | 4016 ft | 202 kts | 200° |
| 2026-05-06 21:39 | 36.03960 | -78.61115 | 4014 ft | 200 kts | 200° |
| 2026-05-06 21:39 | 36.02638 | -78.61639 | 3922 ft | 199 kts | 213° |
| 2026-05-06 21:39 | 36.01622 | -78.62779 | 3723 ft | 200 kts | 227° |
| 2026-05-06 21:40 | 36.00617 | -78.63999 | 3463 ft | 203 kts | 224° |
| 2026-05-06 21:40 | 35.99614 | -78.65199 | 3197 ft | 198 kts | 224° |
| 2026-05-06 21:40 | 35.98652 | -78.66376 | 2943 ft | 192 kts | 224° |
| 2026-05-06 21:40 | 35.97725 | -78.67519 | 2695 ft | 184 kts | 224° |
| 2026-05-06 21:41 | 35.96852 | -78.68594 | 2474 ft | 171 kts | 224° |
| 2026-05-06 21:41 | 35.96036 | -78.69601 | 2250 ft | 161 kts | 224° |
| 2026-05-06 21:41 | 35.95252 | -78.70568 | 2036 ft | 159 kts | 224° |
| 2026-05-06 21:41 | 35.94512 | -78.71480 | 1850 ft | 143 kts | 223° |
| 2026-05-06 21:42 | 35.93859 | -78.72286 | 1700 ft | 124 kts | 223° |
| 2026-05-06 21:42 | 35.93251 | -78.73035 | 1507 ft | 122 kts | 224° |
| 2026-05-06 21:42 | 35.92651 | -78.73775 | 1339 ft | 122 kts | 224° |
| 2026-05-06 21:42 | 35.92057 | -78.74506 | 1178 ft | 124 kts | 224° |
| 2026-05-06 21:43 | 35.91426 | -78.75284 | 1010 ft | 130 kts | 225° |
| 2026-05-06 21:43 | 35.90780 | -78.76081 | 835 ft | 132 kts | 223° |
| 2026-05-06 21:43 | 35.90124 | -78.76866 | 642 ft | 127 kts | 225° |
| 2026-05-06 21:43 | 35.89527 | -78.77625 | 478 ft | 119 kts | 225° |
| 2026-05-06 21:44 | 35.88970 | -78.78306 | 421 ft | 102 kts | 227° |
| 2026-05-06 21:44 | 35.88621 | -78.78744 | 418 ft | 44 kts | 225° |
| 2026-05-06 21:44 | 35.88424 | -78.78984 | 422 ft | 28 kts | 225° |
| 2026-05-06 21:44 | 35.88353 | -78.79063 | 425 ft | 12 kts | 222° |
| 2026-05-06 21:45 | 35.88298 | -78.79136 | 415 ft | 12 kts | 228° |
| 2026-05-06 21:45 | 35.88227 | -78.79230 | 421 ft | 20 kts | 226° |
| 2026-05-06 21:45 | 35.88114 | -78.79370 | 425 ft | 24 kts | 224° |
| 2026-05-06 21:45 | 35.87998 | -78.79511 | 420 ft | 23 kts | 225° |
| 2026-05-06 21:46 | 35.87891 | -78.79644 | 420 ft | 15 kts | 225° |
| 2026-05-06 21:46 | 35.87866 | -78.79675 | 421 ft | 0 kts | 226° |
| 2026-05-06 21:47 | 35.87848 | -78.79695 | 424 ft | 9 kts | 218° |
| 2026-05-06 21:48 | 35.87781 | -78.79727 | 422 ft | 10 kts | 185° |
| 2026-05-06 21:48 | 35.87716 | -78.79694 | 422 ft | 10 kts | 151° |
| 2026-05-06 21:48 | 35.87664 | -78.79642 | 425 ft | 10 kts | 98° |
| 2026-05-06 21:48 | 35.87707 | -78.79579 | 425 ft | 10 kts | 43° |
| 2026-05-06 21:49 | 35.87726 | -78.79517 | 422 ft | 6 kts | 122° |
| 2026-05-06 21:49 | 35.87700 | -78.79483 | 425 ft | 2 kts | 134° |